createdAt,value
2018-09-21T00:01:21.127Z,17.40
2018-09-21T00:03:54.860Z,17.40
2018-09-21T00:06:23.429Z,17.20
2018-09-21T00:08:52.613Z,17.30
2018-09-21T00:11:20.739Z,17.20
2018-09-21T00:21:13.413Z,17.20
2018-09-21T00:26:09.848Z,17.00
2018-09-21T00:31:08.575Z,17.00
2018-09-21T00:33:36.598Z,16.90
2018-09-21T00:36:04.805Z,17.00
2018-09-21T00:38:32.872Z,17.20
2018-09-21T00:41:00.951Z,17.00
2018-09-21T00:43:29.262Z,17.00
2018-09-21T00:45:57.364Z,16.80
2018-09-21T00:48:25.405Z,16.90
2018-09-21T00:50:53.587Z,17.00
2018-09-21T00:58:17.271Z,17.00
2018-09-21T01:00:45.516Z,16.80
2018-09-21T01:03:13.533Z,16.80
2018-09-21T01:05:41.632Z,16.90
2018-09-21T01:10:37.760Z,16.70
2018-09-21T01:13:05.855Z,16.70
2018-09-21T01:15:33.945Z,16.60
2018-09-21T01:18:02.078Z,16.50
2018-09-21T01:22:58.159Z,16.50
2018-09-21T01:25:26.183Z,16.50
2018-09-21T01:30:26.057Z,16.40
2018-09-21T01:32:54.067Z,16.20
2018-09-21T01:35:22.645Z,16.10
2018-09-21T01:37:50.829Z,15.90
2018-09-21T01:40:18.910Z,16.20
2018-09-21T01:42:48.094Z,16.40
2018-09-21T01:45:16.333Z,16.50
2018-09-21T01:47:44.400Z,16.30
2018-09-21T01:50:12.699Z,16.40
2018-09-21T01:52:41.854Z,16.20
2018-09-21T01:57:37.853Z,16.10
2018-09-21T02:00:06.131Z,16.00
2018-09-21T02:02:34.301Z,16.00
2018-09-21T02:05:02.497Z,15.80
2018-09-21T02:07:30.820Z,15.70
2018-09-21T02:09:58.996Z,15.60
2018-09-21T02:12:27.262Z,15.50
2018-09-21T02:14:55.290Z,15.50
2018-09-21T02:19:51.560Z,15.40
2018-09-21T02:22:19.866Z,15.40
2018-09-21T02:24:52.796Z,15.40
2018-09-21T02:27:20.914Z,15.30
2018-09-21T02:29:49.001Z,15.20
2018-09-21T02:32:18.249Z,15.10
2018-09-21T02:34:46.360Z,15.30
2018-09-21T02:37:14.413Z,15.60
2018-09-21T02:39:42.533Z,15.50
2018-09-21T02:44:38.677Z,15.40
2018-09-21T02:52:02.530Z,15.20
2018-09-21T02:57:04.139Z,15.00
2018-09-21T02:59:32.124Z,15.00
2018-09-21T03:02:01.282Z,15.00
2018-09-21T03:04:29.318Z,15.20
2018-09-21T03:09:25.558Z,15.20
2018-09-21T03:12:56.809Z,15.20
2018-09-21T03:15:24.977Z,15.40
2018-09-21T03:17:53.029Z,15.40
2018-09-21T03:20:21.506Z,15.40
2018-09-21T03:22:50.593Z,15.30
2018-09-21T03:25:18.686Z,15.40
2018-09-21T03:27:46.785Z,15.50
2018-09-21T03:30:16.140Z,15.60
2018-09-21T03:32:44.218Z,15.60
2018-09-21T03:35:12.293Z,15.50
2018-09-21T03:37:40.362Z,15.40
2018-09-21T03:40:09.869Z,15.40
2018-09-21T03:42:38.026Z,15.30
2018-09-21T03:45:06.709Z,15.10
2018-09-21T03:47:34.786Z,15.00
2018-09-21T03:50:02.886Z,14.90
2018-09-21T03:54:59.622Z,14.80
2018-09-21T03:57:27.970Z,14.90
2018-09-21T03:59:55.961Z,15.20
2018-09-21T04:02:25.086Z,15.00
2018-09-21T04:04:53.534Z,14.80
2018-09-21T04:07:21.814Z,14.90
2018-09-21T04:19:43.323Z,15.20
2018-09-21T04:22:11.451Z,15.20
2018-09-21T04:24:40.942Z,15.10
2018-09-21T04:27:09.074Z,15.30
2018-09-21T04:29:37.198Z,15.20
2018-09-21T04:32:05.225Z,15.30
2018-09-21T04:34:33.290Z,15.50
2018-09-21T04:37:01.389Z,15.50
2018-09-21T04:41:58.479Z,15.40
2018-09-21T04:44:26.520Z,15.50
2018-09-21T04:46:55.833Z,15.40
2018-09-21T04:49:24.075Z,15.70
2018-09-21T04:51:52.317Z,15.70
2018-09-21T04:54:20.387Z,15.70
2018-09-21T04:56:48.459Z,15.60
2018-09-21T04:59:16.548Z,15.70
2018-09-21T05:01:44.834Z,15.70
2018-09-21T05:04:12.914Z,15.80
2018-09-21T05:06:40.987Z,15.70
2018-09-21T05:09:09.954Z,15.80
2018-09-21T05:11:38.046Z,16.00
2018-09-21T05:14:06.275Z,16.10
2018-09-21T05:16:34.512Z,16.40
2018-09-21T05:19:02.557Z,16.50
2018-09-21T05:21:31.687Z,16.50
2018-09-21T05:24:00.166Z,16.50
2018-09-21T05:26:28.345Z,16.70
2018-09-21T05:28:56.355Z,17.10
2018-09-21T05:31:24.930Z,17.20
2018-09-21T05:33:53.402Z,17.20
2018-09-21T05:36:21.530Z,17.30
2018-09-21T05:38:49.629Z,17.40
2018-09-21T05:41:17.688Z,17.40
2018-09-21T05:46:14.444Z,17.40
2018-09-21T05:48:42.477Z,17.60
2018-09-21T05:51:10.441Z,17.70
2018-09-21T05:53:38.635Z,17.90
2018-09-21T05:56:07.098Z,17.90
2018-09-21T05:58:35.084Z,18.00
2018-09-21T06:01:03.219Z,18.00
2018-09-21T06:03:32.448Z,18.30
2018-09-21T06:06:00.570Z,18.60
2018-09-21T06:08:28.553Z,18.90
2018-09-21T06:10:56.757Z,19.10
2018-09-21T06:13:25.126Z,19.30
2018-09-21T06:15:53.549Z,19.50
2018-09-21T06:18:21.866Z,19.60
2018-09-21T06:20:49.874Z,19.70
2018-09-21T06:23:18.007Z,19.90
2018-09-21T06:25:46.099Z,19.90
2018-09-21T06:28:14.433Z,20.00
2018-09-21T06:30:42.487Z,20.20
2018-09-21T06:33:10.587Z,20.30
2018-09-21T06:35:38.649Z,20.40
2018-09-21T06:38:06.923Z,20.60
2018-09-21T06:40:35.090Z,20.80
2018-09-21T06:43:03.215Z,20.90
2018-09-21T06:45:31.530Z,21.00
2018-09-21T06:47:59.574Z,21.20
2018-09-21T06:50:27.593Z,21.40
2018-09-21T06:52:55.740Z,21.70
2018-09-21T06:55:23.853Z,21.90
2018-09-21T06:57:54.051Z,21.80
2018-09-21T07:00:22.128Z,21.90
2018-09-21T07:02:50.213Z,22.10
2018-09-21T07:05:18.554Z,22.30
2018-09-21T07:07:46.641Z,22.50
2018-09-21T07:10:14.802Z,22.70
2018-09-21T07:12:43.359Z,22.80
2018-09-21T07:15:11.626Z,22.70
2018-09-21T07:17:40.485Z,22.80
2018-09-21T07:20:08.599Z,22.90
2018-09-21T07:22:36.897Z,23.00
2018-09-21T07:30:01.121Z,23.40
2018-09-21T07:32:29.219Z,23.60
2018-09-21T07:34:57.323Z,23.70
2018-09-21T07:39:53.390Z,24.00
2018-09-21T07:44:49.656Z,24.30
2018-09-21T07:47:18.010Z,24.60
2018-09-21T07:54:41.799Z,25.10
2018-09-21T07:57:09.824Z,25.30
2018-09-21T07:59:37.935Z,25.70
2018-09-21T08:02:06.164Z,26.00
2018-09-21T08:07:02.306Z,26.40
2018-09-21T08:14:26.389Z,26.60
2018-09-21T08:16:54.439Z,26.80
2018-09-21T08:21:51.559Z,26.90
2018-09-21T08:24:19.655Z,27.30
2018-09-21T08:26:49.055Z,27.30
2018-09-21T08:29:17.344Z,27.30
2018-09-21T08:31:45.713Z,27.50
2018-09-21T08:39:10.809Z,28.10
2018-09-21T08:41:39.628Z,28.40
2018-09-21T08:44:07.968Z,28.60
2018-09-21T08:46:36.233Z,28.70
2018-09-21T08:49:04.277Z,28.70
2018-09-21T08:51:32.498Z,28.40
2018-09-21T08:54:00.794Z,28.40
2018-09-21T08:56:28.956Z,28.80
2018-09-21T08:58:57.501Z,29.40
2018-09-21T09:01:25.620Z,29.50
2018-09-21T09:03:53.715Z,29.70
2018-09-21T09:06:22.034Z,30.00
2018-09-21T09:08:50.262Z,30.00
2018-09-21T09:11:18.515Z,29.80
2018-09-21T09:13:46.563Z,29.10
2018-09-21T09:16:14.614Z,29.40
2018-09-21T09:18:43.806Z,29.90
2018-09-21T09:21:11.947Z,30.10
2018-09-21T09:23:40.064Z,30.40
2018-09-21T09:26:08.215Z,30.80
2018-09-21T09:28:36.497Z,31.20
2018-09-21T09:33:32.361Z,31.60
2018-09-21T09:36:00.457Z,31.90
2018-09-21T09:40:56.561Z,32.50
2018-09-21T09:43:24.708Z,32.70
2018-09-21T09:45:52.738Z,32.90
2018-09-21T09:48:21.222Z,32.80
2018-09-21T09:50:49.551Z,33.00
2018-09-21T09:53:18.066Z,33.10
2018-09-21T09:55:46.091Z,32.30
2018-09-21T09:58:14.409Z,32.10
2018-09-21T10:00:47.999Z,32.30
2018-09-21T10:03:18.146Z,32.50
2018-09-21T10:05:46.161Z,32.00
2018-09-21T10:10:42.405Z,31.10
2018-09-21T10:15:38.885Z,30.00
2018-09-21T10:18:07.552Z,29.70
2018-09-21T10:20:35.943Z,29.40
2018-09-21T10:23:04.057Z,29.30
2018-09-21T10:30:28.709Z,30.40
2018-09-21T10:32:56.848Z,30.70
2018-09-21T10:37:53.205Z,31.60
2018-09-21T10:40:21.617Z,32.00
2018-09-21T10:42:49.798Z,32.40
2018-09-21T10:45:17.790Z,32.40
2018-09-21T10:50:13.964Z,31.60
2018-09-21T10:52:42.033Z,31.40
2018-09-21T10:55:10.065Z,30.80
2018-09-21T11:00:10.016Z,30.90
2018-09-21T11:05:06.500Z,31.10
2018-09-21T11:10:02.466Z,31.10
2018-09-21T11:12:30.510Z,31.10
2018-09-21T11:17:27.297Z,29.90
2018-09-21T11:19:55.780Z,29.40
2018-09-21T11:22:23.758Z,29.40
2018-09-21T11:24:52.735Z,29.50
2018-09-21T11:27:20.840Z,29.50
2018-09-21T11:29:49.155Z,29.50
2018-09-21T11:34:45.253Z,29.40
2018-09-21T11:37:13.394Z,29.50
2018-09-21T11:44:37.309Z,29.90
2018-09-21T11:47:05.555Z,30.00
2018-09-21T11:49:33.726Z,29.60
2018-09-21T11:52:01.850Z,29.70
2018-09-21T11:54:29.898Z,29.70
2018-09-21T11:56:58.437Z,29.40
2018-09-21T11:59:26.697Z,29.40
2018-09-21T12:01:54.788Z,29.30
2018-09-21T12:04:22.819Z,29.30
2018-09-21T12:06:50.797Z,29.50
2018-09-21T12:09:18.973Z,29.60
2018-09-21T12:11:47.022Z,29.70
2018-09-21T12:14:15.068Z,29.60
2018-09-21T12:19:12.163Z,29.70
2018-09-21T12:21:40.205Z,29.50
2018-09-21T12:24:08.328Z,29.50
2018-09-21T12:26:36.357Z,29.40
2018-09-21T12:29:04.373Z,29.20
2018-09-21T12:31:32.527Z,29.30
2018-09-21T12:34:00.591Z,29.30
2018-09-21T12:38:56.588Z,28.90
2018-09-21T12:41:24.889Z,28.90
2018-09-21T12:43:53.215Z,29.00
2018-09-21T12:46:27.568Z,29.10
2018-09-21T12:48:58.048Z,28.90
2018-09-21T12:51:26.341Z,28.60
2018-09-21T12:53:54.754Z,28.80
2018-09-21T12:56:23.324Z,28.70
2018-09-21T12:58:51.806Z,28.80
2018-09-21T13:01:19.866Z,28.80
2018-09-21T13:03:47.865Z,28.80
2018-09-21T13:06:15.996Z,28.70
2018-09-21T13:08:45.313Z,28.70
2018-09-21T13:11:13.328Z,28.70
2018-09-21T13:13:41.379Z,28.70
2018-09-21T13:21:05.793Z,28.30
2018-09-21T13:28:29.840Z,28.30
2018-09-21T13:33:25.947Z,28.30
2018-09-21T13:38:22.229Z,28.10
2018-09-21T13:40:50.526Z,27.90
2018-09-21T13:43:18.591Z,27.90
2018-09-21T13:45:46.614Z,27.90
2018-09-21T13:48:14.739Z,27.80
2018-09-21T13:50:42.757Z,27.90
2018-09-21T13:53:10.902Z,27.90
2018-09-21T13:55:38.903Z,27.70
2018-09-21T13:58:07.055Z,27.80
2018-09-21T14:00:35.066Z,27.60
2018-09-21T14:05:31.393Z,27.70
2018-09-21T14:07:59.567Z,27.50
2018-09-21T14:10:27.658Z,27.40
2018-09-21T14:12:55.929Z,27.50
2018-09-21T14:15:24.164Z,27.40
2018-09-21T14:17:52.154Z,27.50
2018-09-21T14:20:20.310Z,27.50
2018-09-21T14:22:48.327Z,27.60
2018-09-21T14:25:16.465Z,27.60
2018-09-21T14:27:44.830Z,27.60
2018-09-21T14:30:13.241Z,27.50
2018-09-21T14:32:41.518Z,27.40
2018-09-21T14:35:09.638Z,27.40
2018-09-21T14:37:37.722Z,27.30
2018-09-21T14:40:05.776Z,27.30
2018-09-21T14:45:01.890Z,27.00
2018-09-21T14:47:31.205Z,27.00
2018-09-21T14:49:59.261Z,27.20
2018-09-21T14:52:27.347Z,27.30
2018-09-21T14:54:55.453Z,27.30
2018-09-21T14:57:23.873Z,27.30
2018-09-21T15:02:19.846Z,27.00
2018-09-21T15:04:47.961Z,26.60
2018-09-21T15:07:16.122Z,26.40
2018-09-21T15:09:44.410Z,26.40
2018-09-21T15:12:12.657Z,26.10
2018-09-21T15:14:40.854Z,26.10
2018-09-21T15:17:08.973Z,26.10
2018-09-21T15:19:37.066Z,26.10
2018-09-21T15:22:05.475Z,26.10
2018-09-21T15:27:01.636Z,25.90
2018-09-21T15:29:30.779Z,25.90
2018-09-21T15:31:58.922Z,25.90
2018-09-21T15:34:27.098Z,25.60
2018-09-21T15:39:23.242Z,25.40
2018-09-21T15:41:51.552Z,25.30
2018-09-21T15:44:19.569Z,25.10
2018-09-21T15:46:48.596Z,25.00
2018-09-21T15:49:16.744Z,25.00
2018-09-21T15:51:45.122Z,24.80
2018-09-21T15:54:13.437Z,24.70
2018-09-21T15:59:09.532Z,24.60
2018-09-21T16:01:37.571Z,24.40
2018-09-21T16:04:05.712Z,24.40
2018-09-21T16:06:34.252Z,24.40
2018-09-21T16:09:05.182Z,24.40
2018-09-21T16:11:33.356Z,24.20
2018-09-21T16:16:29.402Z,23.80
2018-09-21T16:18:57.588Z,23.80
2018-09-21T16:21:25.836Z,23.80
2018-09-21T16:28:51.038Z,23.60
2018-09-21T16:31:19.098Z,23.60
2018-09-21T16:36:15.313Z,23.40
2018-09-21T16:38:43.592Z,23.40
2018-09-21T16:41:11.681Z,23.40
2018-09-21T16:43:39.741Z,23.40
2018-09-21T16:46:07.879Z,23.30
2018-09-21T16:48:36.321Z,23.40
2018-09-21T16:51:04.714Z,23.40
2018-09-21T16:56:00.716Z,23.20
2018-09-21T17:00:56.867Z,23.00
2018-09-21T17:03:25.095Z,23.10
2018-09-21T17:08:21.430Z,23.00
2018-09-21T17:10:49.445Z,23.00
2018-09-21T17:13:17.497Z,22.80
2018-09-21T17:15:45.595Z,22.80
2018-09-21T17:18:13.728Z,22.70
2018-09-21T17:23:09.869Z,22.50
2018-09-21T17:25:37.921Z,22.60
2018-09-21T17:28:06.038Z,22.40
2018-09-21T17:30:34.394Z,22.40
2018-09-21T17:33:02.961Z,22.40
2018-09-21T17:35:31.117Z,22.40
2018-09-21T17:37:59.449Z,22.30
2018-09-21T17:40:27.563Z,22.40
2018-09-21T17:45:23.729Z,22.20
2018-09-21T17:47:52.462Z,22.10
2018-09-21T17:50:20.782Z,22.00
2018-09-21T17:52:48.905Z,22.00
2018-09-21T17:55:17.485Z,22.20
2018-09-21T17:57:45.576Z,22.20
2018-09-21T18:02:42.389Z,22.10
2018-09-21T18:05:10.757Z,22.00
2018-09-21T18:07:39.064Z,22.00
2018-09-21T18:10:07.206Z,22.00
2018-09-21T18:12:35.226Z,22.10
2018-09-21T18:15:04.941Z,22.10
2018-09-21T18:17:32.956Z,22.00
2018-09-21T18:20:01.262Z,22.00
2018-09-21T18:22:29.358Z,21.90
2018-09-21T18:27:25.856Z,21.90
2018-09-21T18:32:21.925Z,21.90
2018-09-21T18:34:50.056Z,22.10
2018-09-21T18:37:18.216Z,21.90
2018-09-21T18:39:46.461Z,21.90
2018-09-21T18:42:14.501Z,21.80
2018-09-21T18:44:42.843Z,21.70
2018-09-21T18:49:39.057Z,21.40
2018-09-21T18:52:07.461Z,21.40
2018-09-21T18:54:35.839Z,21.20
2018-09-21T18:57:04.273Z,21.10
2018-09-21T18:59:32.537Z,21.00
2018-09-21T19:02:00.629Z,21.00
2018-09-21T19:06:56.857Z,20.80
2018-09-21T19:11:54.362Z,20.50
2018-09-21T19:14:22.589Z,20.50
2018-09-21T19:16:50.895Z,20.40
2018-09-21T19:19:19.042Z,20.30
2018-09-21T19:21:47.442Z,20.30
2018-09-21T19:24:15.797Z,20.40
2018-09-21T19:26:44.188Z,20.30
2018-09-21T19:34:08.375Z,19.90
2018-09-21T19:36:36.368Z,19.90
2018-09-21T19:39:08.341Z,19.90
2018-09-21T19:44:04.674Z,20.00
2018-09-21T19:46:33.151Z,19.90
2018-09-21T19:49:01.396Z,19.80
2018-09-21T19:51:29.411Z,19.80
2018-09-21T19:53:58.421Z,19.80
2018-09-21T19:56:26.538Z,19.70
2018-09-21T19:58:54.573Z,19.80
2018-09-21T20:01:22.701Z,19.80
2018-09-21T20:13:43.039Z,19.60
2018-09-21T20:16:11.090Z,19.70
2018-09-21T20:18:39.591Z,19.60
2018-09-21T20:21:07.826Z,19.50
2018-09-21T20:23:35.870Z,19.50
2018-09-21T20:31:06.466Z,19.50
2018-09-21T20:33:35.414Z,19.50
2018-09-21T20:40:59.270Z,19.60
2018-09-21T20:43:27.278Z,19.50
2018-09-21T20:45:55.708Z,19.40
2018-09-21T20:48:24.423Z,19.30
2018-09-21T20:50:53.020Z,19.30
2018-09-21T20:53:22.251Z,19.20
2018-09-21T20:55:50.378Z,19.20
2018-09-21T21:00:47.404Z,19.10
2018-09-21T21:03:15.529Z,19.10
2018-09-21T21:05:44.007Z,19.20
2018-09-21T21:10:41.675Z,19.10
2018-09-21T21:13:10.280Z,19.20
2018-09-21T21:15:38.637Z,19.10
2018-09-21T21:18:06.767Z,19.10
2018-09-21T21:20:35.134Z,19.00
2018-09-21T21:23:03.536Z,18.80
2018-09-21T21:25:31.816Z,18.90
2018-09-21T21:27:59.910Z,18.90
2018-09-21T21:32:56.074Z,18.80
2018-09-21T21:35:25.382Z,18.90
2018-09-21T21:37:53.807Z,18.70
2018-09-21T21:40:22.485Z,18.90
2018-09-21T21:42:50.502Z,18.80
2018-09-21T21:45:19.778Z,18.70
2018-09-21T21:47:47.829Z,18.70
2018-09-21T21:52:43.941Z,18.70
2018-09-21T21:55:12.118Z,18.70
2018-09-21T22:00:09.350Z,18.70
2018-09-21T22:05:05.666Z,18.70
2018-09-21T22:07:36.084Z,18.60
2018-09-21T22:10:05.738Z,18.60
2018-09-21T22:12:40.426Z,18.60
2018-09-21T22:15:15.746Z,18.60
2018-09-21T22:17:44.088Z,18.50
2018-09-21T22:22:40.352Z,18.60
2018-09-21T22:25:08.998Z,18.50
2018-09-21T22:27:38.157Z,18.60
2018-09-21T22:30:06.699Z,18.50
2018-09-21T22:35:02.758Z,18.70
2018-09-21T22:37:31.036Z,18.70
2018-09-21T22:39:59.067Z,18.60
2018-09-21T22:42:27.186Z,18.60
2018-09-21T22:44:55.459Z,18.60
2018-09-21T22:49:51.399Z,18.70
2018-09-21T22:52:19.896Z,18.40
2018-09-21T22:54:48.242Z,18.50
2018-09-21T22:57:16.556Z,18.50
2018-09-21T22:59:45.854Z,18.20
2018-09-21T23:02:14.022Z,18.20
2018-09-21T23:04:42.339Z,18.20
2018-09-21T23:07:10.411Z,18.20
2018-09-21T23:09:39.401Z,18.10
2018-09-21T23:12:07.544Z,18.10
2018-09-21T23:14:35.818Z,18.20
2018-09-21T23:19:32.594Z,18.10
2018-09-21T23:22:00.557Z,18.00
2018-09-21T23:24:29.652Z,18.10
2018-09-21T23:26:58.917Z,18.00
2018-09-21T23:29:27.043Z,17.80
2018-09-21T23:31:55.056Z,17.60
2018-09-21T23:34:24.077Z,17.70
2018-09-21T23:36:52.237Z,17.70
2018-09-21T23:39:20.547Z,17.50
2018-09-21T23:41:48.693Z,17.50
2018-09-21T23:44:17.026Z,17.50
2018-09-21T23:46:45.011Z,17.40
2018-09-21T23:49:13.109Z,17.50
2018-09-21T23:51:41.168Z,17.50
2018-09-21T23:54:09.306Z,17.50
2018-09-21T23:56:37.362Z,17.50
2018-09-21T23:59:05.448Z,17.40
